sensor_id;sensor_type;location;lat;lon;timestamp;P1;durP1;ratioP1;P2;durP2;ratioP2
56373;SDS011;58212;47.034;7.376;2023-07-30T00:01:56;6.22;;;5.63;;
56373;SDS011;58212;47.034;7.376;2023-07-30T00:04:23;6.38;;;5.78;;
56373;SDS011;58212;47.034;7.376;2023-07-30T00:06:50;7.28;;;5.65;;
56373;SDS011;58212;47.034;7.376;2023-07-30T00:09:17;6.25;;;5.65;;
56373;SDS011;58212;47.034;7.376;2023-07-30T00:11:44;7.05;;;6.35;;
56373;SDS011;58212;47.034;7.376;2023-07-30T00:14:11;5.95;;;5.35;;
56373;SDS011;58212;47.034;7.376;2023-07-30T00:16:37;5.53;;;4.88;;
56373;SDS011;58212;47.034;7.376;2023-07-30T00:19:06;6.70;;;5.97;;
56373;SDS011;58212;47.034;7.376;2023-07-30T00:21:32;5.47;;;4.90;;
56373;SDS011;58212;47.034;7.376;2023-07-30T00:23:59;5.38;;;4.88;;
56373;SDS011;58212;47.034;7.376;2023-07-30T00:26:26;5.55;;;5.05;;
56373;SDS011;58212;47.034;7.376;2023-07-30T00:28:54;5.03;;;4.53;;
56373;SDS011;58212;47.034;7.376;2023-07-30T00:31:20;5.45;;;4.88;;
56373;SDS011;58212;47.034;7.376;2023-07-30T00:33:47;5.03;;;4.30;;
56373;SDS011;58212;47.034;7.376;2023-07-30T00:36:15;5.03;;;4.53;;
56373;SDS011;58212;47.034;7.376;2023-07-30T00:38:43;6.35;;;4.82;;
56373;SDS011;58212;47.034;7.376;2023-07-30T00:41:09;5.15;;;4.65;;
56373;SDS011;58212;47.034;7.376;2023-07-30T00:43:36;4.85;;;4.18;;
56373;SDS011;58212;47.034;7.376;2023-07-30T00:46:03;4.78;;;4.32;;
56373;SDS011;58212;47.034;7.376;2023-07-30T00:48:33;4.47;;;4.07;;
56373;SDS011;58212;47.034;7.376;2023-07-30T00:51:00;5.25;;;4.75;;
56373;SDS011;58212;47.034;7.376;2023-07-30T00:53:28;4.50;;;4.10;;
56373;SDS011;58212;47.034;7.376;2023-07-30T00:55:56;4.70;;;4.20;;
56373;SDS011;58212;47.034;7.376;2023-07-30T00:58:50;5.43;;;4.93;;
56373;SDS011;58212;47.034;7.376;2023-07-30T01:01:42;4.90;;;4.45;;
56373;SDS011;58212;47.034;7.376;2023-07-30T01:04:13;5.22;;;4.72;;
56373;SDS011;58212;47.034;7.376;2023-07-30T01:06:40;5.40;;;4.90;;
56373;SDS011;58212;47.034;7.376;2023-07-30T01:09:08;5.57;;;4.90;;
56373;SDS011;58212;47.034;7.376;2023-07-30T01:11:35;5.65;;;5.13;;
56373;SDS011;58212;47.034;7.376;2023-07-30T01:14:05;5.10;;;4.60;;
56373;SDS011;58212;47.034;7.376;2023-07-30T01:16:34;6.28;;;5.68;;
56373;SDS011;58212;47.034;7.376;2023-07-30T01:19:01;5.30;;;4.80;;
56373;SDS011;58212;47.034;7.376;2023-07-30T01:21:32;5.82;;;5.22;;
56373;SDS011;58212;47.034;7.376;2023-07-30T01:24:03;4.63;;;4.22;;
56373;SDS011;58212;47.034;7.376;2023-07-30T01:26:30;5.05;;;4.50;;
56373;SDS011;58212;47.034;7.376;2023-07-30T01:29:03;6.60;;;4.63;;
56373;SDS011;58212;47.034;7.376;2023-07-30T01:31:36;5.18;;;4.38;;
56373;SDS011;58212;47.034;7.376;2023-07-30T01:34:06;4.85;;;4.45;;
56373;SDS011;58212;47.034;7.376;2023-07-30T01:36:37;5.28;;;4.85;;
56373;SDS011;58212;47.034;7.376;2023-07-30T01:39:05;4.45;;;4.05;;
56373;SDS011;58212;47.034;7.376;2023-07-30T01:41:32;4.43;;;4.10;;
56373;SDS011;58212;47.034;7.376;2023-07-30T01:43:59;4.72;;;3.65;;
56373;SDS011;58212;47.034;7.376;2023-07-30T01:46:26;4.75;;;4.38;;
56373;SDS011;58212;47.034;7.376;2023-07-30T01:48:53;4.55;;;4.20;;
56373;SDS011;58212;47.034;7.376;2023-07-30T01:51:20;4.20;;;3.80;;
56373;SDS011;58212;47.034;7.376;2023-07-30T01:53:48;3.83;;;3.53;;
56373;SDS011;58212;47.034;7.376;2023-07-30T01:56:14;5.90;;;3.92;;
56373;SDS011;58212;47.034;7.376;2023-07-30T01:58:42;4.20;;;3.90;;
56373;SDS011;58212;47.034;7.376;2023-07-30T02:01:09;4.22;;;3.88;;
56373;SDS011;58212;47.034;7.376;2023-07-30T02:03:36;4.25;;;3.80;;
56373;SDS011;58212;47.034;7.376;2023-07-30T02:06:02;4.07;;;3.67;;
56373;SDS011;58212;47.034;7.376;2023-07-30T02:08:55;3.97;;;3.55;;
56373;SDS011;58212;47.034;7.376;2023-07-30T02:11:22;3.58;;;3.28;;
56373;SDS011;58212;47.034;7.376;2023-07-30T02:13:49;3.65;;;3.35;;
56373;SDS011;58212;47.034;7.376;2023-07-30T02:16:16;4.45;;;3.63;;
56373;SDS011;58212;47.034;7.376;2023-07-30T02:18:42;4.30;;;3.60;;
56373;SDS011;58212;47.034;7.376;2023-07-30T02:21:35;4.45;;;3.53;;
56373;SDS011;58212;47.034;7.376;2023-07-30T02:24:07;4.25;;;3.58;;
56373;SDS011;58212;47.034;7.376;2023-07-30T02:26:37;3.70;;;3.40;;
56373;SDS011;58212;47.034;7.376;2023-07-30T02:29:04;3.80;;;3.50;;
56373;SDS011;58212;47.034;7.376;2023-07-30T02:31:30;4.70;;;4.30;;
56373;SDS011;58212;47.034;7.376;2023-07-30T02:33:57;4.28;;;3.90;;
56373;SDS011;58212;47.034;7.376;2023-07-30T02:36:24;4.15;;;3.78;;
56373;SDS011;58212;47.034;7.376;2023-07-30T02:38:51;4.60;;;4.15;;
56373;SDS011;58212;47.034;7.376;2023-07-30T02:41:19;4.07;;;3.67;;
56373;SDS011;58212;47.034;7.376;2023-07-30T02:43:46;4.13;;;3.75;;
56373;SDS011;58212;47.034;7.376;2023-07-30T02:46:16;4.28;;;3.83;;
56373;SDS011;58212;47.034;7.376;2023-07-30T02:48:43;4.85;;;3.75;;
56373;SDS011;58212;47.034;7.376;2023-07-30T02:51:10;5.40;;;3.80;;
56373;SDS011;58212;47.034;7.376;2023-07-30T02:53:36;3.75;;;3.42;;
56373;SDS011;58212;47.034;7.376;2023-07-30T02:56:06;3.78;;;3.35;;
56373;SDS011;58212;47.034;7.376;2023-07-30T02:58:34;3.40;;;3.08;;
56373;SDS011;58212;47.034;7.376;2023-07-30T03:01:05;2.75;;;2.05;;
56373;SDS011;58212;47.034;7.376;2023-07-30T03:03:32;2.08;;;1.90;;
56373;SDS011;58212;47.034;7.376;2023-07-30T03:06:25;1.70;;;1.60;;
56373;SDS011;58212;47.034;7.376;2023-07-30T03:08:51;1.77;;;1.67;;
56373;SDS011;58212;47.034;7.376;2023-07-30T03:11:18;2.30;;;1.95;;
56373;SDS011;58212;47.034;7.376;2023-07-30T03:13:46;2.30;;;1.75;;
56373;SDS011;58212;47.034;7.376;2023-07-30T03:16:13;2.67;;;1.70;;
56373;SDS011;58212;47.034;7.376;2023-07-30T03:18:40;1.77;;;1.67;;
56373;SDS011;58212;47.034;7.376;2023-07-30T03:21:07;3.22;;;1.80;;
56373;SDS011;58212;47.034;7.376;2023-07-30T03:23:34;2.70;;;1.92;;
56373;SDS011;58212;47.034;7.376;2023-07-30T03:26:04;3.08;;;2.00;;
56373;SDS011;58212;47.034;7.376;2023-07-30T03:28:32;1.88;;;1.77;;
56373;SDS011;58212;47.034;7.376;2023-07-30T03:31:00;3.13;;;2.17;;
56373;SDS011;58212;47.034;7.376;2023-07-30T03:33:27;2.92;;;2.03;;
56373;SDS011;58212;47.034;7.376;2023-07-30T03:35:54;3.05;;;2.22;;
56373;SDS011;58212;47.034;7.376;2023-07-30T03:38:21;2.72;;;2.00;;
56373;SDS011;58212;47.034;7.376;2023-07-30T03:40:49;2.50;;;2.17;;
56373;SDS011;58212;47.034;7.376;2023-07-30T03:43:16;5.05;;;2.00;;
56373;SDS011;58212;47.034;7.376;2023-07-30T03:45:44;2.40;;;2.20;;
56373;SDS011;58212;47.034;7.376;2023-07-30T03:48:12;2.67;;;2.20;;
56373;SDS011;58212;47.034;7.376;2023-07-30T03:50:39;3.10;;;2.63;;
56373;SDS011;58212;47.034;7.376;2023-07-30T03:53:06;2.78;;;2.58;;
56373;SDS011;58212;47.034;7.376;2023-07-30T03:55:58;2.95;;;2.63;;
56373;SDS011;58212;47.034;7.376;2023-07-30T03:58:25;3.00;;;2.75;;
56373;SDS011;58212;47.034;7.376;2023-07-30T04:00:52;2.42;;;2.22;;
56373;SDS011;58212;47.034;7.376;2023-07-30T04:03:45;3.03;;;2.63;;
56373;SDS011;58212;47.034;7.376;2023-07-30T04:06:13;2.63;;;2.42;;
56373;SDS011;58212;47.034;7.376;2023-07-30T04:08:40;4.15;;;2.55;;
56373;SDS011;58212;47.034;7.376;2023-07-30T04:11:08;3.95;;;2.40;;
56373;SDS011;58212;47.034;7.376;2023-07-30T04:13:34;3.00;;;2.70;;
56373;SDS011;58212;47.034;7.376;2023-07-30T04:16:01;2.90;;;2.60;;
56373;SDS011;58212;47.034;7.376;2023-07-30T04:18:28;4.22;;;2.40;;
56373;SDS011;58212;47.034;7.376;2023-07-30T04:20:59;2.70;;;2.50;;
56373;SDS011;58212;47.034;7.376;2023-07-30T04:23:25;3.50;;;2.45;;
56373;SDS011;58212;47.034;7.376;2023-07-30T04:25:52;3.20;;;2.90;;
56373;SDS011;58212;47.034;7.376;2023-07-30T04:28:19;2.75;;;2.55;;
56373;SDS011;58212;47.034;7.376;2023-07-30T04:30:45;3.20;;;2.70;;
56373;SDS011;58212;47.034;7.376;2023-07-30T04:33:13;5.43;;;2.72;;
56373;SDS011;58212;47.034;7.376;2023-07-30T04:35:40;2.58;;;2.38;;
56373;SDS011;58212;47.034;7.376;2023-07-30T04:38:08;3.08;;;2.72;;
56373;SDS011;58212;47.034;7.376;2023-07-30T04:40:36;4.03;;;2.78;;
56373;SDS011;58212;47.034;7.376;2023-07-30T04:43:03;4.25;;;2.78;;
56373;SDS011;58212;47.034;7.376;2023-07-30T04:45:29;3.63;;;2.95;;
56373;SDS011;58212;47.034;7.376;2023-07-30T04:47:56;2.90;;;2.70;;
56373;SDS011;58212;47.034;7.376;2023-07-30T04:50:23;4.63;;;3.00;;
56373;SDS011;58212;47.034;7.376;2023-07-30T04:52:50;3.00;;;2.63;;
56373;SDS011;58212;47.034;7.376;2023-07-30T04:55:21;4.90;;;2.38;;
56373;SDS011;58212;47.034;7.376;2023-07-30T04:57:48;3.05;;;2.58;;
56373;SDS011;58212;47.034;7.376;2023-07-30T05:00:15;2.97;;;2.75;;
56373;SDS011;58212;47.034;7.376;2023-07-30T05:02:42;3.03;;;2.70;;
56373;SDS011;58212;47.034;7.376;2023-07-30T05:05:09;2.72;;;2.50;;
56373;SDS011;58212;47.034;7.376;2023-07-30T05:07:37;3.70;;;3.10;;
56373;SDS011;58212;47.034;7.376;2023-07-30T05:10:07;4.30;;;3.13;;
56373;SDS011;58212;47.034;7.376;2023-07-30T05:12:40;2.40;;;2.20;;
56373;SDS011;58212;47.034;7.376;2023-07-30T05:15:07;2.58;;;2.38;;
56373;SDS011;58212;47.034;7.376;2023-07-30T05:17:34;3.88;;;2.30;;
56373;SDS011;58212;47.034;7.376;2023-07-30T05:20:01;2.60;;;2.40;;
56373;SDS011;58212;47.034;7.376;2023-07-30T05:22:28;4.07;;;2.13;;
56373;SDS011;58212;47.034;7.376;2023-07-30T05:24:54;2.22;;;2.00;;
56373;SDS011;58212;47.034;7.376;2023-07-30T05:27:21;4.10;;;2.10;;
56373;SDS011;58212;47.034;7.376;2023-07-30T05:29:49;2.65;;;2.45;;
56373;SDS011;58212;47.034;7.376;2023-07-30T05:32:16;2.33;;;2.13;;
56373;SDS011;58212;47.034;7.376;2023-07-30T05:34:42;3.08;;;2.10;;
56373;SDS011;58212;47.034;7.376;2023-07-30T05:37:09;2.30;;;2.10;;
56373;SDS011;58212;47.034;7.376;2023-07-30T05:39:36;2.63;;;1.80;;
56373;SDS011;58212;47.034;7.376;2023-07-30T05:42:03;2.05;;;1.60;;
56373;SDS011;58212;47.034;7.376;2023-07-30T05:44:30;2.13;;;1.80;;
56373;SDS011;58212;47.034;7.376;2023-07-30T05:46:59;2.30;;;2.10;;
56373;SDS011;58212;47.034;7.376;2023-07-30T05:49:26;2.20;;;2.00;;
56373;SDS011;58212;47.034;7.376;2023-07-30T05:51:56;2.10;;;1.90;;
56373;SDS011;58212;47.034;7.376;2023-07-30T05:54:23;2.60;;;2.40;;
56373;SDS011;58212;47.034;7.376;2023-07-30T05:56:50;2.38;;;2.17;;
56373;SDS011;58212;47.034;7.376;2023-07-30T05:59:17;3.40;;;2.30;;
56373;SDS011;58212;47.034;7.376;2023-07-30T06:01:44;1.88;;;1.77;;
56373;SDS011;58212;47.034;7.376;2023-07-30T06:04:15;2.28;;;2.08;;
56373;SDS011;58212;47.034;7.376;2023-07-30T06:06:43;1.98;;;1.58;;
56373;SDS011;58212;47.034;7.376;2023-07-30T06:09:10;1.85;;;1.75;;
56373;SDS011;58212;47.034;7.376;2023-07-30T06:11:41;2.42;;;2.03;;
56373;SDS011;58212;47.034;7.376;2023-07-30T06:14:08;1.80;;;1.60;;
56373;SDS011;58212;47.034;7.376;2023-07-30T06:16:35;2.30;;;1.95;;
56373;SDS011;58212;47.034;7.376;2023-07-30T06:19:01;2.30;;;1.65;;
56373;SDS011;58212;47.034;7.376;2023-07-30T06:21:29;1.80;;;1.70;;
56373;SDS011;58212;47.034;7.376;2023-07-30T06:23:56;2.10;;;1.90;;
56373;SDS011;58212;47.034;7.376;2023-07-30T06:26:23;1.80;;;1.70;;
56373;SDS011;58212;47.034;7.376;2023-07-30T06:28:50;1.88;;;1.70;;
56373;SDS011;58212;47.034;7.376;2023-07-30T06:31:18;2.20;;;1.90;;
56373;SDS011;58212;47.034;7.376;2023-07-30T06:33:45;1.90;;;1.80;;
56373;SDS011;58212;47.034;7.376;2023-07-30T06:36:12;2.28;;;1.60;;
56373;SDS011;58212;47.034;7.376;2023-07-30T06:38:40;2.15;;;1.95;;
56373;SDS011;58212;47.034;7.376;2023-07-30T06:41:06;2.17;;;1.55;;
56373;SDS011;58212;47.034;7.376;2023-07-30T06:43:37;1.65;;;1.55;;
56373;SDS011;58212;47.034;7.376;2023-07-30T06:46:04;1.77;;;1.65;;
56373;SDS011;58212;47.034;7.376;2023-07-30T06:48:31;1.58;;;1.48;;
56373;SDS011;58212;47.034;7.376;2023-07-30T06:50:58;1.65;;;1.55;;
56373;SDS011;58212;47.034;7.376;2023-07-30T06:53:24;2.38;;;1.88;;
56373;SDS011;58212;47.034;7.376;2023-07-30T06:55:53;1.60;;;1.50;;
56373;SDS011;58212;47.034;7.376;2023-07-30T06:58:19;2.33;;;1.50;;
56373;SDS011;58212;47.034;7.376;2023-07-30T07:00:46;1.42;;;1.33;;
56373;SDS011;58212;47.034;7.376;2023-07-30T07:03:13;1.85;;;1.75;;
56373;SDS011;58212;47.034;7.376;2023-07-30T07:05:40;2.00;;;1.77;;
56373;SDS011;58212;47.034;7.376;2023-07-30T07:08:06;1.40;;;1.30;;
56373;SDS011;58212;47.034;7.376;2023-07-30T07:10:32;1.90;;;1.58;;
56373;SDS011;58212;47.034;7.376;2023-07-30T07:13:00;2.22;;;1.77;;
56373;SDS011;58212;47.034;7.376;2023-07-30T07:15:27;1.70;;;1.60;;
56373;SDS011;58212;47.034;7.376;2023-07-30T07:17:54;1.40;;;1.23;;
56373;SDS011;58212;47.034;7.376;2023-07-30T07:20:21;1.63;;;1.42;;
56373;SDS011;58212;47.034;7.376;2023-07-30T07:23:13;2.00;;;1.30;;
56373;SDS011;58212;47.034;7.376;2023-07-30T07:25:39;1.38;;;1.25;;
56373;SDS011;58212;47.034;7.376;2023-07-30T07:28:07;1.33;;;1.23;;
56373;SDS011;58212;47.034;7.376;2023-07-30T07:30:35;1.45;;;1.30;;
56373;SDS011;58212;47.034;7.376;2023-07-30T07:33:03;1.08;;;1.00;;
56373;SDS011;58212;47.034;7.376;2023-07-30T07:35:30;0.80;;;0.80;;
56373;SDS011;58212;47.034;7.376;2023-07-30T07:37:57;1.83;;;1.13;;
56373;SDS011;58212;47.034;7.376;2023-07-30T07:40:24;1.70;;;0.90;;
56373;SDS011;58212;47.034;7.376;2023-07-30T07:42:50;1.10;;;1.00;;
56373;SDS011;58212;47.034;7.376;2023-07-30T07:45:19;1.23;;;1.10;;
56373;SDS011;58212;47.034;7.376;2023-07-30T07:47:45;1.63;;;0.90;;
56373;SDS011;58212;47.034;7.376;2023-07-30T07:50:12;1.88;;;0.95;;
56373;SDS011;58212;47.034;7.376;2023-07-30T07:52:39;1.88;;;0.93;;
56373;SDS011;58212;47.034;7.376;2023-07-30T07:55:06;0.75;;;0.75;;
56373;SDS011;58212;47.034;7.376;2023-07-30T07:57:35;1.13;;;0.95;;
56373;SDS011;58212;47.034;7.376;2023-07-30T08:00:02;1.17;;;0.90;;
56373;SDS011;58212;47.034;7.376;2023-07-30T08:02:41;1.85;;;0.98;;
56373;SDS011;58212;47.034;7.376;2023-07-30T08:05:08;0.90;;;0.80;;
56373;SDS011;58212;47.034;7.376;2023-07-30T08:07:36;0.70;;;0.70;;
56373;SDS011;58212;47.034;7.376;2023-07-30T08:10:03;0.88;;;0.80;;
56373;SDS011;58212;47.034;7.376;2023-07-30T08:12:31;1.52;;;1.00;;
56373;SDS011;58212;47.034;7.376;2023-07-30T08:14:59;1.50;;;0.73;;
56373;SDS011;58212;47.034;7.376;2023-07-30T08:17:26;0.93;;;0.80;;
56373;SDS011;58212;47.034;7.376;2023-07-30T08:19:57;1.48;;;0.88;;
56373;SDS011;58212;47.034;7.376;2023-07-30T08:22:25;0.85;;;0.85;;
56373;SDS011;58212;47.034;7.376;2023-07-30T08:24:51;1.95;;;0.60;;
56373;SDS011;58212;47.034;7.376;2023-07-30T08:27:19;1.30;;;0.80;;
56373;SDS011;58212;47.034;7.376;2023-07-30T08:29:46;3.00;;;1.20;;
56373;SDS011;58212;47.034;7.376;2023-07-30T08:32:12;1.52;;;0.82;;
56373;SDS011;58212;47.034;7.376;2023-07-30T08:34:43;1.10;;;1.00;;
56373;SDS011;58212;47.034;7.376;2023-07-30T08:37:11;2.28;;;0.90;;
56373;SDS011;58212;47.034;7.376;2023-07-30T08:39:38;1.00;;;0.80;;
56373;SDS011;58212;47.034;7.376;2023-07-30T08:42:05;1.33;;;0.90;;
56373;SDS011;58212;47.034;7.376;2023-07-30T08:44:34;1.90;;;0.90;;
56373;SDS011;58212;47.034;7.376;2023-07-30T08:47:01;0.90;;;0.90;;
56373;SDS011;58212;47.034;7.376;2023-07-30T08:49:30;1.27;;;1.00;;
56373;SDS011;58212;47.034;7.376;2023-07-30T08:51:58;2.00;;;1.05;;
56373;SDS011;58212;47.034;7.376;2023-07-30T08:54:30;1.33;;;0.75;;
56373;SDS011;58212;47.034;7.376;2023-07-30T08:56:58;1.42;;;0.80;;
56373;SDS011;58212;47.034;7.376;2023-07-30T08:59:26;1.10;;;1.00;;
56373;SDS011;58212;47.034;7.376;2023-07-30T09:01:57;1.10;;;0.90;;
56373;SDS011;58212;47.034;7.376;2023-07-30T09:04:26;0.98;;;0.73;;
56373;SDS011;58212;47.034;7.376;2023-07-30T09:06:56;1.75;;;0.90;;
56373;SDS011;58212;47.034;7.376;2023-07-30T09:09:22;1.02;;;0.90;;
56373;SDS011;58212;47.034;7.376;2023-07-30T09:11:52;1.13;;;0.80;;
56373;SDS011;58212;47.034;7.376;2023-07-30T09:14:20;1.63;;;1.15;;
56373;SDS011;58212;47.034;7.376;2023-07-30T09:16:47;0.98;;;0.95;;
56373;SDS011;58212;47.034;7.376;2023-07-30T09:19:39;1.50;;;1.00;;
56373;SDS011;58212;47.034;7.376;2023-07-30T09:22:06;1.85;;;1.38;;
56373;SDS011;58212;47.034;7.376;2023-07-30T09:24:32;2.35;;;1.10;;
56373;SDS011;58212;47.034;7.376;2023-07-30T09:27:02;1.30;;;1.15;;
56373;SDS011;58212;47.034;7.376;2023-07-30T09:29:29;1.33;;;1.00;;
56373;SDS011;58212;47.034;7.376;2023-07-30T09:31:56;1.30;;;1.15;;
56373;SDS011;58212;47.034;7.376;2023-07-30T09:34:23;1.33;;;1.20;;
56373;SDS011;58212;47.034;7.376;2023-07-30T09:36:51;1.42;;;1.17;;
56373;SDS011;58212;47.034;7.376;2023-07-30T09:39:19;1.30;;;1.00;;
56373;SDS011;58212;47.034;7.376;2023-07-30T09:41:47;1.83;;;1.30;;
56373;SDS011;58212;47.034;7.376;2023-07-30T09:44:17;1.35;;;1.25;;
56373;SDS011;58212;47.034;7.376;2023-07-30T09:46:45;2.15;;;1.98;;
56373;SDS011;58212;47.034;7.376;2023-07-30T09:49:13;1.48;;;1.38;;
56373;SDS011;58212;47.034;7.376;2023-07-30T09:51:44;1.20;;;1.05;;
56373;SDS011;58212;47.034;7.376;2023-07-30T09:54:11;2.40;;;1.17;;
56373;SDS011;58212;47.034;7.376;2023-07-30T09:56:40;1.42;;;1.20;;
56373;SDS011;58212;47.034;7.376;2023-07-30T09:59:09;1.50;;;1.40;;
56373;SDS011;58212;47.034;7.376;2023-07-30T10:01:38;1.45;;;1.35;;
56373;SDS011;58212;47.034;7.376;2023-07-30T10:04:09;2.47;;;1.40;;
56373;SDS011;58212;47.034;7.376;2023-07-30T10:06:37;2.20;;;1.30;;
56373;SDS011;58212;47.034;7.376;2023-07-30T10:09:07;2.17;;;1.30;;
56373;SDS011;58212;47.034;7.376;2023-07-30T10:11:37;2.45;;;1.35;;
56373;SDS011;58212;47.034;7.376;2023-07-30T10:14:06;2.00;;;1.75;;
56373;SDS011;58212;47.034;7.376;2023-07-30T10:16:33;1.77;;;1.67;;
56373;SDS011;58212;47.034;7.376;2023-07-30T10:19:01;1.55;;;1.40;;
56373;SDS011;58212;47.034;7.376;2023-07-30T10:21:28;2.38;;;1.52;;
56373;SDS011;58212;47.034;7.376;2023-07-30T10:24:22;1.30;;;1.10;;
56373;SDS011;58212;47.034;7.376;2023-07-30T10:26:51;2.95;;;1.15;;
56373;SDS011;58212;47.034;7.376;2023-07-30T10:29:22;1.60;;;1.50;;
56373;SDS011;58212;47.034;7.376;2023-07-30T10:32:15;1.75;;;1.30;;
56373;SDS011;58212;47.034;7.376;2023-07-30T10:34:45;1.40;;;1.30;;
56373;SDS011;58212;47.034;7.376;2023-07-30T10:37:17;2.17;;;1.50;;
56373;SDS011;58212;47.034;7.376;2023-07-30T10:39:45;1.55;;;1.40;;
56373;SDS011;58212;47.034;7.376;2023-07-30T10:42:14;3.13;;;1.92;;
56373;SDS011;58212;47.034;7.376;2023-07-30T10:44:43;2.17;;;1.98;;
56373;SDS011;58212;47.034;7.376;2023-07-30T10:47:11;1.17;;;1.10;;
56373;SDS011;58212;47.034;7.376;2023-07-30T10:49:38;1.52;;;1.42;;
56373;SDS011;58212;47.034;7.376;2023-07-30T10:52:10;2.33;;;2.03;;
56373;SDS011;58212;47.034;7.376;2023-07-30T10:54:37;2.20;;;1.30;;
56373;SDS011;58212;47.034;7.376;2023-07-30T10:57:04;1.83;;;1.40;;
56373;SDS011;58212;47.034;7.376;2023-07-30T10:59:57;1.98;;;1.30;;
56373;SDS011;58212;47.034;7.376;2023-07-30T11:02:25;2.38;;;1.25;;
56373;SDS011;58212;47.034;7.376;2023-07-30T11:04:54;1.40;;;1.30;;
56373;SDS011;58212;47.034;7.376;2023-07-30T11:07:23;1.20;;;1.10;;
56373;SDS011;58212;47.034;7.376;2023-07-30T11:09:58;2.97;;;1.30;;
56373;SDS011;58212;47.034;7.376;2023-07-30T11:12:26;1.55;;;1.45;;
56373;SDS011;58212;47.034;7.376;2023-07-30T11:14:59;2.78;;;1.38;;
56373;SDS011;58212;47.034;7.376;2023-07-30T11:17:27;1.90;;;1.45;;
56373;SDS011;58212;47.034;7.376;2023-07-30T11:19:53;1.50;;;1.40;;
56373;SDS011;58212;47.034;7.376;2023-07-30T11:22:29;3.20;;;1.40;;
56373;SDS011;58212;47.034;7.376;2023-07-30T11:24:58;1.70;;;1.50;;
56373;SDS011;58212;47.034;7.376;2023-07-30T11:27:26;1.90;;;1.65;;
56373;SDS011;58212;47.034;7.376;2023-07-30T11:29:53;1.65;;;1.40;;
56373;SDS011;58212;47.034;7.376;2023-07-30T11:32:20;1.52;;;1.33;;
56373;SDS011;58212;47.034;7.376;2023-07-30T11:34:50;2.97;;;1.52;;
56373;SDS011;58212;47.034;7.376;2023-07-30T11:37:19;1.63;;;1.52;;
56373;SDS011;58212;47.034;7.376;2023-07-30T11:39:48;1.40;;;1.30;;
56373;SDS011;58212;47.034;7.376;2023-07-30T11:42:15;1.67;;;1.58;;
56373;SDS011;58212;47.034;7.376;2023-07-30T11:44:42;1.27;;;1.17;;
56373;SDS011;58212;47.034;7.376;2023-07-30T11:47:09;1.88;;;1.40;;
56373;SDS011;58212;47.034;7.376;2023-07-30T11:49:36;1.88;;;1.77;;
56373;SDS011;58212;47.034;7.376;2023-07-30T11:52:05;1.85;;;1.60;;
56373;SDS011;58212;47.034;7.376;2023-07-30T11:54:32;1.92;;;1.63;;
56373;SDS011;58212;47.034;7.376;2023-07-30T11:57:02;2.90;;;2.45;;
56373;SDS011;58212;47.034;7.376;2023-07-30T11:59:30;1.50;;;1.40;;
56373;SDS011;58212;47.034;7.376;2023-07-30T12:01:57;1.60;;;1.50;;
56373;SDS011;58212;47.034;7.376;2023-07-30T12:04:24;1.70;;;1.60;;
56373;SDS011;58212;47.034;7.376;2023-07-30T12:06:51;1.55;;;1.45;;
56373;SDS011;58212;47.034;7.376;2023-07-30T12:09:19;2.35;;;1.52;;
56373;SDS011;58212;47.034;7.376;2023-07-30T12:11:48;1.92;;;1.50;;
56373;SDS011;58212;47.034;7.376;2023-07-30T12:14:18;1.50;;;1.40;;
56373;SDS011;58212;47.034;7.376;2023-07-30T12:16:45;2.25;;;1.40;;
56373;SDS011;58212;47.034;7.376;2023-07-30T12:19:14;1.65;;;1.52;;
56373;SDS011;58212;47.034;7.376;2023-07-30T12:21:41;1.55;;;1.45;;
56373;SDS011;58212;47.034;7.376;2023-07-30T12:24:08;1.70;;;1.60;;
56373;SDS011;58212;47.034;7.376;2023-07-30T12:26:34;2.05;;;1.30;;
56373;SDS011;58212;47.034;7.376;2023-07-30T12:29:02;1.65;;;1.55;;
56373;SDS011;58212;47.034;7.376;2023-07-30T12:31:30;1.63;;;1.48;;
56373;SDS011;58212;47.034;7.376;2023-07-30T12:33:57;1.48;;;1.35;;
56373;SDS011;58212;47.034;7.376;2023-07-30T12:36:23;2.08;;;1.48;;
56373;SDS011;58212;47.034;7.376;2023-07-30T12:38:51;1.42;;;1.30;;
56373;SDS011;58212;47.034;7.376;2023-07-30T12:41:19;1.50;;;1.27;;
56373;SDS011;58212;47.034;7.376;2023-07-30T12:44:16;2.47;;;1.55;;
56373;SDS011;58212;47.034;7.376;2023-07-30T12:46:45;1.70;;;1.50;;
56373;SDS011;58212;47.034;7.376;2023-07-30T12:49:11;3.83;;;2.60;;
56373;SDS011;58212;47.034;7.376;2023-07-30T12:51:39;1.50;;;1.38;;
56373;SDS011;58212;47.034;7.376;2023-07-30T12:54:07;2.13;;;1.25;;
56373;SDS011;58212;47.034;7.376;2023-07-30T12:56:34;3.17;;;1.80;;
56373;SDS011;58212;47.034;7.376;2023-07-30T12:59:00;1.92;;;1.55;;
56373;SDS011;58212;47.034;7.376;2023-07-30T13:01:28;2.08;;;1.60;;
56373;SDS011;58212;47.034;7.376;2023-07-30T13:03:56;1.95;;;1.50;;
56373;SDS011;58212;47.034;7.376;2023-07-30T13:06:22;3.47;;;1.48;;
56373;SDS011;58212;47.034;7.376;2023-07-30T13:08:49;2.35;;;1.30;;
56373;SDS011;58212;47.034;7.376;2023-07-30T13:11:16;1.50;;;1.38;;
56373;SDS011;58212;47.034;7.376;2023-07-30T13:13:42;2.40;;;1.38;;
56373;SDS011;58212;47.034;7.376;2023-07-30T13:16:10;1.85;;;1.58;;
56373;SDS011;58212;47.034;7.376;2023-07-30T13:18:37;1.58;;;1.45;;
56373;SDS011;58212;47.034;7.376;2023-07-30T13:21:05;1.95;;;1.27;;
56373;SDS011;58212;47.034;7.376;2023-07-30T13:23:31;1.40;;;1.27;;
56373;SDS011;58212;47.034;7.376;2023-07-30T13:25:59;1.73;;;1.58;;
56373;SDS011;58212;47.034;7.376;2023-07-30T13:28:27;3.85;;;1.70;;
56373;SDS011;58212;47.034;7.376;2023-07-30T13:30:57;1.60;;;1.23;;
56373;SDS011;58212;47.034;7.376;2023-07-30T13:33:24;3.97;;;1.35;;
56373;SDS011;58212;47.034;7.376;2023-07-30T13:35:50;1.80;;;1.48;;
56373;SDS011;58212;47.034;7.376;2023-07-30T13:38:18;1.60;;;1.02;;
56373;SDS011;58212;47.034;7.376;2023-07-30T13:40:46;1.52;;;1.13;;
56373;SDS011;58212;47.034;7.376;2023-07-30T13:43:14;2.25;;;1.48;;
56373;SDS011;58212;47.034;7.376;2023-07-30T13:45:41;1.33;;;1.20;;
56373;SDS011;58212;47.034;7.376;2023-07-30T13:48:07;1.75;;;1.05;;
56373;SDS011;58212;47.034;7.376;2023-07-30T13:50:34;2.28;;;1.25;;
56373;SDS011;58212;47.034;7.376;2023-07-30T13:53:01;2.20;;;1.15;;
56373;SDS011;58212;47.034;7.376;2023-07-30T13:55:29;1.35;;;1.25;;
56373;SDS011;58212;47.034;7.376;2023-07-30T13:57:56;1.50;;;1.20;;
56373;SDS011;58212;47.034;7.376;2023-07-30T14:00:23;1.85;;;1.30;;
56373;SDS011;58212;47.034;7.376;2023-07-30T14:02:51;1.38;;;1.17;;
56373;SDS011;58212;47.034;7.376;2023-07-30T14:05:18;1.98;;;1.33;;
56373;SDS011;58212;47.034;7.376;2023-07-30T14:07:44;1.83;;;1.33;;
56373;SDS011;58212;47.034;7.376;2023-07-30T14:10:12;2.75;;;1.20;;
56373;SDS011;58212;47.034;7.376;2023-07-30T14:12:40;1.60;;;1.50;;
56373;SDS011;58212;47.034;7.376;2023-07-30T14:15:07;1.65;;;1.25;;
56373;SDS011;58212;47.034;7.376;2023-07-30T14:17:35;2.15;;;1.50;;
56373;SDS011;58212;47.034;7.376;2023-07-30T14:20:02;1.38;;;1.17;;
56373;SDS011;58212;47.034;7.376;2023-07-30T14:22:29;1.95;;;1.08;;
56373;SDS011;58212;47.034;7.376;2023-07-30T14:24:56;2.22;;;1.45;;
56373;SDS011;58212;47.034;7.376;2023-07-30T14:27:24;1.52;;;1.20;;
56373;SDS011;58212;47.034;7.376;2023-07-30T14:29:52;1.48;;;1.15;;
56373;SDS011;58212;47.034;7.376;2023-07-30T14:32:19;2.78;;;1.67;;
56373;SDS011;58212;47.034;7.376;2023-07-30T14:34:46;1.42;;;1.30;;
56373;SDS011;58212;47.034;7.376;2023-07-30T14:37:13;2.70;;;1.83;;
56373;SDS011;58212;47.034;7.376;2023-07-30T14:39:40;2.17;;;1.50;;
56373;SDS011;58212;47.034;7.376;2023-07-30T14:42:07;3.30;;;1.20;;
56373;SDS011;58212;47.034;7.376;2023-07-30T14:44:34;1.30;;;1.20;;
56373;SDS011;58212;47.034;7.376;2023-07-30T14:47:02;2.28;;;1.38;;
56373;SDS011;58212;47.034;7.376;2023-07-30T14:49:30;1.67;;;1.15;;
56373;SDS011;58212;47.034;7.376;2023-07-30T14:51:58;1.30;;;1.10;;
56373;SDS011;58212;47.034;7.376;2023-07-30T14:54:26;1.58;;;1.15;;
56373;SDS011;58212;47.034;7.376;2023-07-30T14:56:53;1.55;;;1.20;;